createdAt,value
2019-01-25T00:04:18.030Z,36.93
2019-01-25T00:07:28.347Z,36.87
2019-01-25T00:10:18.900Z,36.87
2019-01-25T00:18:18.778Z,36.78
2019-01-25T00:20:49.665Z,37.11
2019-01-25T00:26:28.163Z,36.48
2019-01-25T00:34:47.730Z,37.49
2019-01-25T00:37:18.127Z,36.68
2019-01-25T00:40:07.071Z,36.92
2019-01-25T00:42:56.567Z,36.50
2019-01-25T00:45:26.903Z,36.77
2019-01-25T00:47:57.233Z,36.52
2019-01-25T00:50:28.302Z,36.70
2019-01-25T00:52:59.347Z,36.53
2019-01-25T00:55:29.612Z,36.46
2019-01-25T00:58:18.942Z,36.31
2019-01-25T01:00:49.343Z,36.34
2019-01-25T01:03:19.632Z,36.34
2019-01-25T01:05:52.553Z,36.04
2019-01-25T01:08:42.264Z,36.25
2019-01-25T01:11:12.529Z,36.32
2019-01-25T01:13:42.822Z,36.33
2019-01-25T01:16:15.843Z,36.61
2019-01-25T01:19:25.278Z,36.53
2019-01-25T01:21:55.645Z,36.84
2019-01-25T01:24:27.000Z,36.82
2019-01-25T01:27:28.546Z,36.52
2019-01-25T01:33:24.161Z,36.61
2019-01-25T01:35:47.467Z,36.76
2019-01-25T01:38:17.768Z,37.10
2019-01-25T01:41:06.954Z,37.55
2019-01-25T01:43:37.293Z,37.52
2019-01-25T01:46:26.237Z,37.63
2019-01-25T01:51:55.905Z,37.26
2019-01-25T01:54:26.136Z,37.36
2019-01-25T01:56:56.326Z,37.00
2019-01-25T01:59:48.723Z,37.02
2019-01-25T02:02:30.688Z,37.03
2019-01-25T02:08:21.154Z,37.25
2019-01-25T02:17:15.072Z,37.62
2019-01-25T02:19:58.757Z,36.66
2019-01-25T02:22:35.140Z,36.66
2019-01-25T02:28:07.499Z,37.27
2019-01-25T02:36:35.928Z,36.46
2019-01-25T02:39:25.166Z,36.94
2019-01-25T02:45:15.682Z,37.22
2019-01-25T02:56:12.859Z,37.47
2019-01-25T02:58:43.896Z,37.41
2019-01-25T03:03:57.592Z,36.62
2019-01-25T03:09:49.158Z,36.56
2019-01-25T03:15:29.362Z,37.35
2019-01-25T03:18:01.909Z,37.67
2019-01-25T03:20:57.648Z,37.57
2019-01-25T03:26:34.439Z,37.89
2019-01-25T03:29:23.901Z,37.94
2019-01-25T03:31:54.418Z,38.06
2019-01-25T03:34:45.126Z,38.09
2019-01-25T03:43:26.148Z,37.49
2019-01-25T03:46:51.082Z,37.03
2019-01-25T03:49:15.747Z,36.78
2019-01-25T03:54:49.111Z,36.83
2019-01-25T04:00:02.126Z,37.76
2019-01-25T04:02:32.369Z,37.84
2019-01-25T04:05:02.647Z,37.86
2019-01-25T04:07:44.958Z,38.17
2019-01-25T04:13:13.892Z,38.21
2019-01-25T04:16:04.320Z,38.41
2019-01-25T04:18:34.581Z,39.00
2019-01-25T04:21:05.728Z,39.14
2019-01-25T04:23:35.985Z,38.94
2019-01-25T04:26:26.167Z,39.09
2019-01-25T04:31:48.079Z,38.87
2019-01-25T04:34:38.153Z,38.72
2019-01-25T04:37:08.511Z,38.39
2019-01-25T04:39:58.515Z,38.43
2019-01-25T04:42:28.756Z,38.16
2019-01-25T04:45:00.028Z,38.45
2019-01-25T04:47:49.341Z,38.96
2019-01-25T04:50:22.041Z,39.08
2019-01-25T04:52:53.163Z,39.55
2019-01-25T04:55:43.463Z,39.63
2019-01-25T04:58:15.832Z,39.63
2019-01-25T05:01:24.869Z,40.63
2019-01-25T05:04:14.916Z,40.63
2019-01-25T05:06:48.306Z,40.62
2019-01-25T05:09:37.314Z,41.18
2019-01-25T05:14:49.599Z,41.10
2019-01-25T05:17:20.716Z,40.64
2019-01-25T05:20:09.978Z,39.88
2019-01-25T05:22:40.433Z,39.61
2019-01-25T05:25:11.436Z,40.06
2019-01-25T05:27:44.159Z,40.38
2019-01-25T05:30:34.255Z,40.50
2019-01-25T05:33:24.339Z,41.74
2019-01-25T05:44:27.767Z,41.98
2019-01-25T05:49:51.072Z,42.61
2019-01-25T05:52:40.840Z,42.69
2019-01-25T05:55:29.200Z,42.59
2019-01-25T05:57:50.716Z,42.89
2019-01-25T06:01:01.947Z,43.17
2019-01-25T06:03:33.020Z,43.17
2019-01-25T06:06:06.197Z,43.01
2019-01-25T06:08:56.357Z,42.89
2019-01-25T06:11:27.451Z,42.62
2019-01-25T06:13:58.564Z,42.67
2019-01-25T06:16:49.980Z,42.39
2019-01-25T06:19:39.686Z,41.86
2019-01-25T06:22:30.061Z,42.99
2019-01-25T06:25:13.216Z,42.99
2019-01-25T06:28:17.916Z,42.58
2019-01-25T06:31:08.392Z,42.22
2019-01-25T06:34:17.158Z,41.80
2019-01-25T06:37:07.418Z,42.31
2019-01-25T06:39:37.779Z,43.10
2019-01-25T06:45:00.401Z,43.03
2019-01-25T06:48:10.978Z,43.03
2019-01-25T06:51:00.703Z,43.28
2019-01-25T06:59:22.811Z,43.51
2019-01-25T07:02:12.570Z,42.89
2019-01-25T07:04:42.885Z,43.11
2019-01-25T07:10:03.379Z,43.24
2019-01-25T07:12:55.016Z,43.17
2019-01-25T07:15:28.066Z,43.21
2019-01-25T07:21:01.370Z,43.44
2019-01-25T07:23:51.397Z,43.25
2019-01-25T07:26:37.400Z,43.48
2019-01-25T07:29:09.251Z,43.03
2019-01-25T07:31:39.573Z,42.57
2019-01-25T07:34:12.342Z,42.73
2019-01-25T07:36:43.682Z,42.79
2019-01-25T07:39:34.129Z,42.99
2019-01-25T07:42:05.327Z,43.47
2019-01-25T07:44:36.625Z,42.99
2019-01-25T07:47:07.968Z,42.30
2019-01-25T07:49:38.251Z,42.92
2019-01-25T07:52:50.305Z,42.77
2019-01-25T07:55:21.513Z,42.31
2019-01-25T08:01:08.897Z,42.45
2019-01-25T08:03:40.039Z,43.19
2019-01-25T08:06:14.215Z,43.20
2019-01-25T08:08:59.886Z,42.93
2019-01-25T08:11:45.117Z,42.93
2019-01-25T08:14:05.251Z,43.24
2019-01-25T08:16:36.407Z,43.21
2019-01-25T08:19:26.245Z,42.97
2019-01-25T08:22:08.908Z,43.03
2019-01-25T08:30:33.155Z,43.39
2019-01-25T08:36:24.718Z,43.54
2019-01-25T08:38:56.029Z,44.11
2019-01-25T08:41:29.989Z,44.10
2019-01-25T08:44:05.958Z,44.04
2019-01-25T08:52:37.182Z,44.91
2019-01-25T08:55:29.844Z,44.91
2019-01-25T08:58:19.078Z,45.23
2019-01-25T09:00:43.012Z,45.45
2019-01-25T09:03:14.832Z,45.83
2019-01-25T09:06:21.219Z,45.91
2019-01-25T09:18:36.083Z,46.14
2019-01-25T09:21:28.545Z,45.27
2019-01-25T09:24:30.758Z,45.03
2019-01-25T09:27:43.318Z,45.62
2019-01-25T09:30:23.306Z,46.73
2019-01-25T09:32:54.516Z,46.12
2019-01-25T09:38:49.341Z,46.26
2019-01-25T09:44:29.392Z,47.16
2019-01-25T09:47:17.311Z,46.17
2019-01-25T09:49:48.231Z,46.41
2019-01-25T09:52:22.006Z,46.29
2019-01-25T09:54:59.678Z,45.64
2019-01-25T09:57:52.299Z,46.45
2019-01-25T10:04:04.569Z,46.18
2019-01-25T10:06:53.970Z,46.74
2019-01-25T10:09:45.360Z,47.37
2019-01-25T10:12:43.069Z,47.21
2019-01-25T10:15:47.260Z,47.37
2019-01-25T10:18:40.122Z,47.22
2019-01-25T10:21:30.501Z,47.10
2019-01-25T10:24:14.968Z,46.28
2019-01-25T10:27:05.465Z,46.28
2019-01-25T10:29:36.743Z,46.13
2019-01-25T10:35:47.541Z,46.00
2019-01-25T10:41:10.878Z,46.46
2019-01-25T10:43:41.596Z,46.51
2019-01-25T10:46:12.725Z,46.27
2019-01-25T10:48:44.493Z,46.72
2019-01-25T10:51:37.342Z,46.92
2019-01-25T10:57:17.869Z,46.43
2019-01-25T10:59:49.933Z,46.43
2019-01-25T11:02:24.042Z,47.93
2019-01-25T11:05:34.263Z,47.38
2019-01-25T11:08:05.157Z,47.69
2019-01-25T11:13:31.427Z,48.13
2019-01-25T11:16:42.186Z,47.65
2019-01-25T11:22:27.590Z,47.36
2019-01-25T11:25:01.752Z,47.92
2019-01-25T11:27:36.371Z,47.13
2019-01-25T11:30:29.152Z,47.13
2019-01-25T11:33:00.920Z,47.27
2019-01-25T11:35:44.217Z,47.63
2019-01-25T11:38:25.330Z,48.11
2019-01-25T11:41:15.707Z,48.10
2019-01-25T11:46:40.042Z,47.82
2019-01-25T11:53:19.172Z,47.77
2019-01-25T11:55:53.446Z,48.01
2019-01-25T11:58:38.697Z,47.84
2019-01-25T12:04:22.336Z,47.35
2019-01-25T12:07:27.651Z,47.79
2019-01-25T12:16:10.335Z,47.97
2019-01-25T12:19:03.446Z,48.27
2019-01-25T12:21:47.311Z,48.28
2019-01-25T12:24:33.474Z,48.28
2019-01-25T12:26:54.448Z,49.39
2019-01-25T12:29:28.320Z,49.25
2019-01-25T12:32:37.289Z,48.71
2019-01-25T12:35:48.868Z,49.08
2019-01-25T12:41:29.286Z,48.86
2019-01-25T12:44:38.480Z,49.05
2019-01-25T12:47:10.015Z,48.53
2019-01-25T12:50:00.555Z,48.29
2019-01-25T12:53:10.905Z,48.46
2019-01-25T12:58:43.146Z,49.30
2019-01-25T13:04:28.172Z,47.87
2019-01-25T13:07:19.255Z,48.25
2019-01-25T13:09:51.083Z,47.54
2019-01-25T13:12:25.198Z,47.46
2019-01-25T13:14:55.627Z,47.75
2019-01-25T13:17:45.944Z,48.01
2019-01-25T13:21:01.442Z,48.16
2019-01-25T13:23:16.238Z,49.09
2019-01-25T13:29:32.837Z,48.15
2019-01-25T13:32:19.119Z,47.73
2019-01-25T13:35:10.028Z,47.98
2019-01-25T13:38:21.493Z,49.13
2019-01-25T13:40:55.620Z,49.62
2019-01-25T13:46:58.767Z,48.39
2019-01-25T13:49:58.196Z,48.00
2019-01-25T13:52:51.594Z,47.94
2019-01-25T13:58:32.343Z,47.55
2019-01-25T14:01:03.734Z,47.39
2019-01-25T14:03:34.980Z,46.37
2019-01-25T14:06:27.323Z,46.82
2019-01-25T14:09:19.122Z,47.79
2019-01-25T14:12:12.244Z,47.24
2019-01-25T14:20:31.622Z,47.75
2019-01-25T14:23:12.150Z,47.34
2019-01-25T14:25:44.735Z,46.95
2019-01-25T14:28:55.154Z,46.09
2019-01-25T14:31:27.110Z,46.36
2019-01-25T14:33:58.218Z,46.74
2019-01-25T14:37:10.117Z,47.65
2019-01-25T14:45:33.883Z,48.41
2019-01-25T14:48:07.688Z,47.59
2019-01-25T14:51:17.994Z,47.59
2019-01-25T14:54:09.436Z,47.83
2019-01-25T14:56:49.868Z,47.70
2019-01-25T15:08:42.889Z,48.13
2019-01-25T15:11:22.248Z,47.29
2019-01-25T15:14:47.225Z,47.10
2019-01-25T15:17:28.819Z,46.55
2019-01-25T15:20:19.016Z,46.88
2019-01-25T15:26:06.004Z,47.70
2019-01-25T15:29:10.293Z,48.34
2019-01-25T15:37:43.618Z,49.70
2019-01-25T15:40:34.303Z,48.74
2019-01-25T15:43:15.906Z,48.60
2019-01-25T15:46:18.511Z,48.48
2019-01-25T15:48:38.972Z,48.43
2019-01-25T15:51:29.163Z,48.29
2019-01-25T15:54:00.261Z,48.84
2019-01-25T15:57:09.279Z,48.59
2019-01-25T16:00:00.249Z,48.67
2019-01-25T16:02:50.433Z,48.67
2019-01-25T16:05:40.896Z,48.00
2019-01-25T16:28:53.698Z,48.09
2019-01-25T16:31:27.865Z,48.38
2019-01-25T16:34:17.605Z,48.28
2019-01-25T16:37:07.734Z,48.16
2019-01-25T16:40:31.625Z,48.72
2019-01-25T16:49:18.472Z,47.74
2019-01-25T16:51:51.818Z,48.00
2019-01-25T16:57:10.342Z,47.30
2019-01-25T16:59:43.225Z,47.32
2019-01-25T17:05:27.585Z,47.19
2019-01-25T17:11:39.252Z,47.54
2019-01-25T17:14:33.352Z,47.55
2019-01-25T17:17:32.173Z,48.24
2019-01-25T17:20:36.712Z,48.59
2019-01-25T17:22:56.138Z,47.69
2019-01-25T17:28:46.808Z,46.47
2019-01-25T17:34:47.128Z,47.32
2019-01-25T17:40:46.418Z,47.77
2019-01-25T17:43:12.067Z,47.99
2019-01-25T17:51:59.263Z,47.21
2019-01-25T17:57:49.733Z,47.30
2019-01-25T18:04:02.862Z,47.41
2019-01-25T18:06:35.450Z,47.87
2019-01-25T18:09:08.654Z,47.97
2019-01-25T18:11:39.256Z,48.00
2019-01-25T18:14:09.473Z,47.86
2019-01-25T18:16:59.519Z,48.13
2019-01-25T18:19:49.587Z,48.28
2019-01-25T18:25:48.885Z,47.66
2019-01-25T18:28:40.850Z,47.84
2019-01-25T18:31:16.156Z,48.32
2019-01-25T18:33:49.096Z,48.06
2019-01-25T18:36:39.138Z,47.70
2019-01-25T18:39:47.616Z,47.70
2019-01-25T18:42:18.314Z,47.97
2019-01-25T18:45:08.374Z,48.25
2019-01-25T18:47:57.676Z,47.77
2019-01-25T18:50:27.960Z,48.02
2019-01-25T18:53:01.290Z,48.56
2019-01-25T18:55:51.334Z,48.64
2019-01-25T18:58:38.296Z,48.87
2019-01-25T19:01:18.599Z,48.66
2019-01-25T19:04:13.254Z,48.71
2019-01-25T19:07:07.125Z,48.58
2019-01-25T19:09:38.548Z,48.72
2019-01-25T19:15:33.769Z,49.39
2019-01-25T19:21:06.604Z,49.72
2019-01-25T19:23:58.392Z,49.85
2019-01-25T19:26:59.347Z,50.64
2019-01-25T19:30:12.467Z,51.24
2019-01-25T19:33:34.441Z,51.44
2019-01-25T19:36:13.196Z,51.40
2019-01-25T19:38:44.271Z,52.03
2019-01-25T19:41:53.423Z,52.25
2019-01-25T19:44:38.152Z,52.58
2019-01-25T19:47:47.816Z,52.45
2019-01-25T19:53:51.455Z,53.42
2019-01-25T19:59:51.041Z,54.78
2019-01-25T20:02:40.346Z,54.84
2019-01-25T20:05:36.490Z,54.44
2019-01-25T20:08:27.406Z,54.55
2019-01-25T20:14:28.621Z,55.75
2019-01-25T20:17:18.707Z,55.43
2019-01-25T20:22:49.189Z,56.20
2019-01-25T20:26:26.705Z,56.96
2019-01-25T20:29:09.242Z,56.70
2019-01-25T20:35:44.947Z,56.45
2019-01-25T20:38:18.602Z,56.91
2019-01-25T20:41:10.222Z,57.20
2019-01-25T20:43:46.023Z,57.38
2019-01-25T20:49:46.317Z,56.20
2019-01-25T20:55:30.501Z,56.37
2019-01-25T20:58:41.660Z,56.73
2019-01-25T21:07:04.712Z,57.82
2019-01-25T21:12:22.617Z,57.40
2019-01-25T21:15:13.449Z,56.89
2019-01-25T21:18:05.465Z,57.00
2019-01-25T21:20:54.721Z,56.80
2019-01-25T21:23:44.049Z,57.48
2019-01-25T21:29:13.895Z,58.01
2019-01-25T21:31:56.189Z,57.92
2019-01-25T21:35:21.607Z,58.36
2019-01-25T21:36:50.857Z,58.65
2019-01-25T21:39:21.233Z,58.79
2019-01-25T21:42:11.416Z,59.18
2019-01-25T21:44:42.016Z,58.85
2019-01-25T21:50:26.599Z,59.26
2019-01-25T21:56:12.114Z,59.90
2019-01-25T21:58:55.338Z,59.90
2019-01-25T22:02:04.814Z,59.63
2019-01-25T22:07:42.988Z,60.05
2019-01-25T22:10:35.237Z,59.83
2019-01-25T22:13:05.737Z,59.23
2019-01-25T22:15:38.540Z,58.93
2019-01-25T22:18:08.762Z,59.02
2019-01-25T22:21:01.858Z,59.49
2019-01-25T22:23:53.817Z,59.65
2019-01-25T22:26:48.283Z,58.90
2019-01-25T22:29:18.833Z,58.92
2019-01-25T22:31:53.293Z,58.76
2019-01-25T22:34:26.140Z,58.63
2019-01-25T22:36:58.643Z,58.90
2019-01-25T22:39:29.215Z,58.60
2019-01-25T22:42:21.939Z,58.84
2019-01-25T22:44:36.981Z,59.26
2019-01-25T22:47:29.286Z,59.25
2019-01-25T22:50:18.527Z,59.35
2019-01-25T22:55:56.210Z,59.96
2019-01-25T22:59:06.925Z,59.42
2019-01-25T23:01:37.324Z,59.33
2019-01-25T23:04:47.933Z,59.11
2019-01-25T23:07:40.817Z,59.39
2019-01-25T23:13:24.065Z,58.67
2019-01-25T23:16:13.034Z,58.99
2019-01-25T23:18:48.608Z,58.99
2019-01-25T23:24:20.120Z,58.69
2019-01-25T23:27:09.404Z,58.62
2019-01-25T23:29:59.926Z,59.01
2019-01-25T23:32:52.319Z,58.38
2019-01-25T23:35:41.248Z,58.29
2019-01-25T23:38:30.539Z,58.27
2019-01-25T23:41:01.587Z,58.34
2019-01-25T23:44:11.084Z,58.47
2019-01-25T23:47:00.300Z,57.73
2019-01-25T23:49:42.869Z,58.40
2019-01-25T23:52:03.888Z,58.95
2019-01-25T23:54:36.808Z,58.50
2019-01-25T23:57:28.447Z,58.56
